sensor_id;sensor_type;location;lat;lon;timestamp;P1;durP1;ratioP1;P2;durP2;ratioP2
46006;SDS011;31738;50.188;8.524;2022-11-12T00:02:07;12.75;;;4.95;;
46006;SDS011;31738;50.188;8.524;2022-11-12T00:04:50;12.63;;;4.97;;
46006;SDS011;31738;50.188;8.524;2022-11-12T00:07:34;7.72;;;4.80;;
46006;SDS011;31738;50.188;8.524;2022-11-12T00:10:19;7.27;;;4.93;;
46006;SDS011;31738;50.188;8.524;2022-11-12T00:13:04;27.25;;;6.78;;
46006;SDS011;31738;50.188;8.524;2022-11-12T00:15:48;38.15;;;4.88;;
46006;SDS011;31738;50.188;8.524;2022-11-12T00:18:32;18.27;;;4.47;;
46006;SDS011;31738;50.188;8.524;2022-11-12T00:21:16;37.80;;;6.32;;
46006;SDS011;31738;50.188;8.524;2022-11-12T00:24:00;21.52;;;5.72;;
46006;SDS011;31738;50.188;8.524;2022-11-12T00:26:44;31.58;;;6.28;;
46006;SDS011;31738;50.188;8.524;2022-11-12T00:29:28;32.75;;;6.07;;
46006;SDS011;31738;50.188;8.524;2022-11-12T00:32:12;37.65;;;7.00;;
46006;SDS011;31738;50.188;8.524;2022-11-12T00:34:56;26.05;;;5.90;;
46006;SDS011;31738;50.188;8.524;2022-11-12T00:37:40;27.03;;;6.70;;
46006;SDS011;31738;50.188;8.524;2022-11-12T00:40:24;65.68;;;7.38;;
46006;SDS011;31738;50.188;8.524;2022-11-12T00:43:08;81.43;;;8.45;;
46006;SDS011;31738;50.188;8.524;2022-11-12T00:45:53;73.03;;;7.47;;
46006;SDS011;31738;50.188;8.524;2022-11-12T00:48:37;55.90;;;6.63;;
46006;SDS011;31738;50.188;8.524;2022-11-12T00:51:21;34.63;;;6.38;;
46006;SDS011;31738;50.188;8.524;2022-11-12T00:54:05;43.03;;;7.03;;
46006;SDS011;31738;50.188;8.524;2022-11-12T00:56:50;25.42;;;6.53;;
46006;SDS011;31738;50.188;8.524;2022-11-12T00:59:34;23.15;;;5.82;;
46006;SDS011;31738;50.188;8.524;2022-11-12T01:02:18;36.58;;;5.93;;
46006;SDS011;31738;50.188;8.524;2022-11-12T01:05:03;22.35;;;5.40;;
46006;SDS011;31738;50.188;8.524;2022-11-12T01:07:47;12.32;;;5.63;;
46006;SDS011;31738;50.188;8.524;2022-11-12T01:10:33;12.65;;;5.45;;
46006;SDS011;31738;50.188;8.524;2022-11-12T01:13:19;8.23;;;4.97;;
46006;SDS011;31738;50.188;8.524;2022-11-12T01:16:07;8.93;;;5.32;;
46006;SDS011;31738;50.188;8.524;2022-11-12T01:19:06;8.52;;;4.80;;
46006;SDS011;31738;50.188;8.524;2022-11-12T01:21:52;8.27;;;4.65;;
46006;SDS011;31738;50.188;8.524;2022-11-12T01:24:36;8.02;;;4.68;;
46006;SDS011;31738;50.188;8.524;2022-11-12T01:27:20;7.75;;;4.63;;
46006;SDS011;31738;50.188;8.524;2022-11-12T01:30:04;6.43;;;3.90;;
46006;SDS011;31738;50.188;8.524;2022-11-12T01:32:49;9.07;;;4.60;;
46006;SDS011;31738;50.188;8.524;2022-11-12T01:35:33;6.75;;;4.28;;
46006;SDS011;31738;50.188;8.524;2022-11-12T01:38:17;9.20;;;4.88;;
46006;SDS011;31738;50.188;8.524;2022-11-12T01:41:01;9.30;;;5.25;;
46006;SDS011;31738;50.188;8.524;2022-11-12T01:43:46;9.15;;;4.20;;
46006;SDS011;31738;50.188;8.524;2022-11-12T01:46:30;6.40;;;3.97;;
46006;SDS011;31738;50.188;8.524;2022-11-12T01:49:26;8.05;;;4.20;;
46006;SDS011;31738;50.188;8.524;2022-11-12T01:52:16;7.85;;;4.50;;
46006;SDS011;31738;50.188;8.524;2022-11-12T01:55:06;14.82;;;5.40;;
46006;SDS011;31738;50.188;8.524;2022-11-12T01:57:55;15.95;;;5.63;;
46006;SDS011;31738;50.188;8.524;2022-11-12T02:00:48;23.55;;;7.05;;
46006;SDS011;31738;50.188;8.524;2022-11-12T02:03:33;34.85;;;7.05;;
46006;SDS011;31738;50.188;8.524;2022-11-12T02:06:17;25.15;;;7.78;;
46006;SDS011;31738;50.188;8.524;2022-11-12T02:09:03;97.13;;;12.73;;
46006;SDS011;31738;50.188;8.524;2022-11-12T02:11:48;41.95;;;8.90;;
46006;SDS011;31738;50.188;8.524;2022-11-12T02:14:32;39.88;;;9.35;;
46006;SDS011;31738;50.188;8.524;2022-11-12T02:17:17;63.47;;;9.32;;
46006;SDS011;31738;50.188;8.524;2022-11-12T02:20:01;103.35;;;13.77;;
46006;SDS011;31738;50.188;8.524;2022-11-12T02:22:46;89.78;;;13.77;;
46006;SDS011;31738;50.188;8.524;2022-11-12T02:25:30;72.57;;;15.13;;
46006;SDS011;31738;50.188;8.524;2022-11-12T02:32:08;46.50;;;11.05;;
46006;SDS011;31738;50.188;8.524;2022-11-12T02:34:52;46.30;;;13.38;;
46006;SDS011;31738;50.188;8.524;2022-11-12T02:37:36;50.97;;;16.00;;
46006;SDS011;31738;50.188;8.524;2022-11-12T02:40:21;111.00;;;34.25;;
46006;SDS011;31738;50.188;8.524;2022-11-12T02:43:05;65.20;;;20.52;;
46006;SDS011;31738;50.188;8.524;2022-11-12T02:45:49;43.72;;;9.75;;
46006;SDS011;31738;50.188;8.524;2022-11-12T02:48:33;57.67;;;18.50;;
46006;SDS011;31738;50.188;8.524;2022-11-12T02:51:17;67.30;;;8.80;;
46006;SDS011;31738;50.188;8.524;2022-11-12T02:54:01;75.32;;;7.70;;
46006;SDS011;31738;50.188;8.524;2022-11-12T02:56:45;74.72;;;7.20;;
46006;SDS011;31738;50.188;8.524;2022-11-12T02:59:30;58.47;;;6.70;;
46006;SDS011;31738;50.188;8.524;2022-11-12T03:02:13;83.00;;;6.80;;
46006;SDS011;31738;50.188;8.524;2022-11-12T03:04:58;62.97;;;7.28;;
46006;SDS011;31738;50.188;8.524;2022-11-12T03:07:42;98.50;;;8.43;;
46006;SDS011;31738;50.188;8.524;2022-11-12T03:10:26;89.00;;;10.43;;
46006;SDS011;31738;50.188;8.524;2022-11-12T03:13:11;113.28;;;9.02;;
46006;SDS011;31738;50.188;8.524;2022-11-12T03:15:58;72.57;;;8.35;;
46006;SDS011;31738;50.188;8.524;2022-11-12T03:18:43;70.95;;;8.15;;
46006;SDS011;31738;50.188;8.524;2022-11-12T03:21:27;71.68;;;8.50;;
46006;SDS011;31738;50.188;8.524;2022-11-12T03:24:10;93.18;;;9.10;;
46006;SDS011;31738;50.188;8.524;2022-11-12T03:26:55;73.20;;;9.00;;
46006;SDS011;31738;50.188;8.524;2022-11-12T03:29:39;66.35;;;8.60;;
46006;SDS011;31738;50.188;8.524;2022-11-12T03:32:23;80.22;;;8.85;;
46006;SDS011;31738;50.188;8.524;2022-11-12T03:38:06;38.50;;;7.43;;
46006;SDS011;31738;50.188;8.524;2022-11-12T03:40:51;86.30;;;8.45;;
46006;SDS011;31738;50.188;8.524;2022-11-12T03:43:36;46.45;;;7.00;;
46006;SDS011;31738;50.188;8.524;2022-11-12T03:46:24;53.00;;;7.25;;
46006;SDS011;31738;50.188;8.524;2022-11-12T03:49:08;39.15;;;7.10;;
46006;SDS011;31738;50.188;8.524;2022-11-12T03:51:53;68.43;;;7.70;;
46006;SDS011;31738;50.188;8.524;2022-11-12T03:54:37;52.97;;;6.88;;
46006;SDS011;31738;50.188;8.524;2022-11-12T03:57:27;55.38;;;7.47;;
46006;SDS011;31738;50.188;8.524;2022-11-12T04:00:11;74.70;;;7.05;;
46006;SDS011;31738;50.188;8.524;2022-11-12T04:02:56;61.83;;;6.95;;
46006;SDS011;31738;50.188;8.524;2022-11-12T04:05:41;45.67;;;6.50;;
46006;SDS011;31738;50.188;8.524;2022-11-12T04:08:44;49.67;;;7.35;;
46006;SDS011;31738;50.188;8.524;2022-11-12T04:11:28;49.28;;;7.32;;
46006;SDS011;31738;50.188;8.524;2022-11-12T04:14:13;58.92;;;7.40;;
46006;SDS011;31738;50.188;8.524;2022-11-12T04:16:57;49.42;;;7.38;;
46006;SDS011;31738;50.188;8.524;2022-11-12T04:20:00;54.55;;;6.80;;
46006;SDS011;31738;50.188;8.524;2022-11-12T04:23:03;68.05;;;7.63;;
46006;SDS011;31738;50.188;8.524;2022-11-12T04:25:47;70.35;;;7.75;;
46006;SDS011;31738;50.188;8.524;2022-11-12T04:28:50;39.53;;;7.38;;
46006;SDS011;31738;50.188;8.524;2022-11-12T04:31:53;57.78;;;8.30;;
46006;SDS011;31738;50.188;8.524;2022-11-12T04:34:37;49.00;;;8.15;;
46006;SDS011;31738;50.188;8.524;2022-11-12T04:37:22;43.92;;;8.30;;
46006;SDS011;31738;50.188;8.524;2022-11-12T04:40:08;47.42;;;6.53;;
46006;SDS011;31738;50.188;8.524;2022-11-12T04:43:14;40.15;;;8.05;;
46006;SDS011;31738;50.188;8.524;2022-11-12T04:46:19;42.10;;;7.65;;
46006;SDS011;31738;50.188;8.524;2022-11-12T04:49:03;30.87;;;7.00;;
46006;SDS011;31738;50.188;8.524;2022-11-12T04:51:47;47.70;;;7.78;;
46006;SDS011;31738;50.188;8.524;2022-11-12T04:54:49;33.55;;;8.88;;
46006;SDS011;31738;50.188;8.524;2022-11-12T04:57:34;30.63;;;5.80;;
46006;SDS011;31738;50.188;8.524;2022-11-12T05:00:22;27.40;;;6.50;;
46006;SDS011;31738;50.188;8.524;2022-11-12T05:03:06;23.10;;;5.75;;
46006;SDS011;31738;50.188;8.524;2022-11-12T05:05:50;32.67;;;6.32;;
46006;SDS011;31738;50.188;8.524;2022-11-12T05:08:43;22.58;;;6.50;;
46006;SDS011;31738;50.188;8.524;2022-11-12T05:11:30;41.45;;;6.88;;
46006;SDS011;31738;50.188;8.524;2022-11-12T05:14:14;23.53;;;5.90;;
46006;SDS011;31738;50.188;8.524;2022-11-12T05:16:58;14.63;;;5.43;;
46006;SDS011;31738;50.188;8.524;2022-11-12T05:19:48;12.57;;;5.72;;
46006;SDS011;31738;50.188;8.524;2022-11-12T05:22:32;12.90;;;5.85;;
46006;SDS011;31738;50.188;8.524;2022-11-12T05:25:20;10.40;;;5.55;;
46006;SDS011;31738;50.188;8.524;2022-11-12T05:28:04;10.98;;;5.43;;
46006;SDS011;31738;50.188;8.524;2022-11-12T05:30:48;10.02;;;4.82;;
46006;SDS011;31738;50.188;8.524;2022-11-12T05:33:32;7.93;;;4.78;;
46006;SDS011;31738;50.188;8.524;2022-11-12T05:36:19;6.35;;;4.25;;
46006;SDS011;31738;50.188;8.524;2022-11-12T05:39:08;8.85;;;5.32;;
46006;SDS011;31738;50.188;8.524;2022-11-12T05:42:03;7.95;;;4.88;;
46006;SDS011;31738;50.188;8.524;2022-11-12T05:44:48;8.48;;;4.45;;
46006;SDS011;31738;50.188;8.524;2022-11-12T05:47:35;6.57;;;4.38;;
46006;SDS011;31738;50.188;8.524;2022-11-12T05:50:38;8.95;;;3.88;;
46006;SDS011;31738;50.188;8.524;2022-11-12T05:53:28;6.53;;;4.28;;
46006;SDS011;31738;50.188;8.524;2022-11-12T05:56:12;6.43;;;3.90;;
46006;SDS011;31738;50.188;8.524;2022-11-12T05:59:00;7.15;;;4.20;;
46006;SDS011;31738;50.188;8.524;2022-11-12T06:01:53;5.93;;;3.97;;
46006;SDS011;31738;50.188;8.524;2022-11-12T06:04:43;5.90;;;3.63;;
46006;SDS011;31738;50.188;8.524;2022-11-12T06:07:39;4.78;;;3.58;;
46006;SDS011;31738;50.188;8.524;2022-11-12T06:10:31;4.97;;;3.35;;
46006;SDS011;31738;50.188;8.524;2022-11-12T06:13:17;5.93;;;3.50;;
46006;SDS011;31738;50.188;8.524;2022-11-12T06:16:02;5.38;;;3.30;;
46006;SDS011;31738;50.188;8.524;2022-11-12T06:18:46;5.80;;;3.78;;
46006;SDS011;31738;50.188;8.524;2022-11-12T06:21:30;5.97;;;3.70;;
46006;SDS011;31738;50.188;8.524;2022-11-12T06:24:15;7.63;;;3.70;;
46006;SDS011;31738;50.188;8.524;2022-11-12T06:26:59;10.27;;;3.67;;
46006;SDS011;31738;50.188;8.524;2022-11-12T06:29:43;7.65;;;3.65;;
46006;SDS011;31738;50.188;8.524;2022-11-12T06:32:27;8.27;;;4.10;;
46006;SDS011;31738;50.188;8.524;2022-11-12T06:35:12;8.48;;;4.00;;
46006;SDS011;31738;50.188;8.524;2022-11-12T06:37:56;8.48;;;3.85;;
46006;SDS011;31738;50.188;8.524;2022-11-12T06:40:40;5.90;;;3.65;;
46006;SDS011;31738;50.188;8.524;2022-11-12T06:43:26;7.88;;;3.85;;
46006;SDS011;31738;50.188;8.524;2022-11-12T06:46:14;7.03;;;3.95;;
46006;SDS011;31738;50.188;8.524;2022-11-12T06:48:59;5.90;;;3.80;;
46006;SDS011;31738;50.188;8.524;2022-11-12T06:51:43;9.45;;;4.10;;
46006;SDS011;31738;50.188;8.524;2022-11-12T06:54:27;9.27;;;4.20;;
46006;SDS011;31738;50.188;8.524;2022-11-12T06:57:11;6.32;;;4.07;;
46006;SDS011;31738;50.188;8.524;2022-11-12T06:59:55;8.18;;;4.28;;
46006;SDS011;31738;50.188;8.524;2022-11-12T07:02:40;6.72;;;3.88;;
46006;SDS011;31738;50.188;8.524;2022-11-12T07:05:24;8.73;;;3.95;;
46006;SDS011;31738;50.188;8.524;2022-11-12T07:08:08;7.95;;;4.20;;
46006;SDS011;31738;50.188;8.524;2022-11-12T07:10:56;9.80;;;6.70;;
46006;SDS011;31738;50.188;8.524;2022-11-12T07:13:40;15.05;;;6.13;;
46006;SDS011;31738;50.188;8.524;2022-11-12T07:16:27;9.23;;;5.00;;
46006;SDS011;31738;50.188;8.524;2022-11-12T07:19:11;6.95;;;4.05;;
46006;SDS011;31738;50.188;8.524;2022-11-12T07:21:54;11.65;;;4.40;;
46006;SDS011;31738;50.188;8.524;2022-11-12T07:24:39;8.50;;;4.25;;
46006;SDS011;31738;50.188;8.524;2022-11-12T07:27:23;9.45;;;4.90;;
46006;SDS011;31738;50.188;8.524;2022-11-12T07:30:07;12.93;;;5.88;;
46006;SDS011;31738;50.188;8.524;2022-11-12T07:32:52;9.23;;;5.05;;
46006;SDS011;31738;50.188;8.524;2022-11-12T07:35:35;8.82;;;4.68;;
46006;SDS011;31738;50.188;8.524;2022-11-12T07:38:20;10.95;;;4.88;;
46006;SDS011;31738;50.188;8.524;2022-11-12T07:46:34;11.98;;;5.47;;
46006;SDS011;31738;50.188;8.524;2022-11-12T07:49:19;14.80;;;7.50;;
46006;SDS011;31738;50.188;8.524;2022-11-12T07:52:03;13.68;;;6.57;;
46006;SDS011;31738;50.188;8.524;2022-11-12T07:54:47;14.48;;;7.03;;
46006;SDS011;31738;50.188;8.524;2022-11-12T07:57:31;16.50;;;7.60;;
46006;SDS011;31738;50.188;8.524;2022-11-12T08:00:17;18.27;;;8.25;;
46006;SDS011;31738;50.188;8.524;2022-11-12T08:03:01;20.20;;;8.90;;
46006;SDS011;31738;50.188;8.524;2022-11-12T08:05:46;18.45;;;9.02;;
46006;SDS011;31738;50.188;8.524;2022-11-12T08:08:30;14.77;;;6.70;;
46006;SDS011;31738;50.188;8.524;2022-11-12T08:11:15;19.35;;;8.60;;
46006;SDS011;31738;50.188;8.524;2022-11-12T08:13:59;23.13;;;9.80;;
46006;SDS011;31738;50.188;8.524;2022-11-12T08:16:44;18.63;;;8.85;;
46006;SDS011;31738;50.188;8.524;2022-11-12T08:19:29;19.35;;;9.40;;
46006;SDS011;31738;50.188;8.524;2022-11-12T08:22:13;24.90;;;10.73;;
46006;SDS011;31738;50.188;8.524;2022-11-12T08:24:58;19.40;;;9.90;;
46006;SDS011;31738;50.188;8.524;2022-11-12T08:27:42;23.00;;;10.45;;
46006;SDS011;31738;50.188;8.524;2022-11-12T08:30:26;23.77;;;11.23;;
46006;SDS011;31738;50.188;8.524;2022-11-12T08:33:11;27.55;;;11.82;;
46006;SDS011;31738;50.188;8.524;2022-11-12T08:35:55;27.77;;;12.60;;
46006;SDS011;31738;50.188;8.524;2022-11-12T08:38:39;28.90;;;12.68;;
46006;SDS011;31738;50.188;8.524;2022-11-12T08:41:23;28.70;;;13.65;;
46006;SDS011;31738;50.188;8.524;2022-11-12T08:44:08;29.73;;;12.15;;
46006;SDS011;31738;50.188;8.524;2022-11-12T08:46:52;28.03;;;12.43;;
46006;SDS011;31738;50.188;8.524;2022-11-12T08:49:36;22.13;;;11.65;;
46006;SDS011;31738;50.188;8.524;2022-11-12T08:52:20;24.13;;;11.30;;
46006;SDS011;31738;50.188;8.524;2022-11-12T08:55:05;22.02;;;11.88;;
46006;SDS011;31738;50.188;8.524;2022-11-12T08:57:49;30.15;;;13.68;;
46006;SDS011;31738;50.188;8.524;2022-11-12T09:00:34;27.10;;;13.43;;
46006;SDS011;31738;50.188;8.524;2022-11-12T09:03:26;30.90;;;14.38;;
46006;SDS011;31738;50.188;8.524;2022-11-12T09:06:10;27.90;;;13.57;;
46006;SDS011;31738;50.188;8.524;2022-11-12T09:08:54;27.60;;;14.20;;
46006;SDS011;31738;50.188;8.524;2022-11-12T09:11:39;30.67;;;14.57;;
46006;SDS011;31738;50.188;8.524;2022-11-12T09:14:23;29.58;;;13.88;;
46006;SDS011;31738;50.188;8.524;2022-11-12T09:17:07;155.27;;;17.58;;
46006;SDS011;31738;50.188;8.524;2022-11-12T09:19:50;34.15;;;15.50;;
46006;SDS011;31738;50.188;8.524;2022-11-12T09:22:35;51.63;;;16.33;;
46006;SDS011;31738;50.188;8.524;2022-11-12T09:25:19;51.20;;;17.00;;
46006;SDS011;31738;50.188;8.524;2022-11-12T09:28:10;34.92;;;15.95;;
46006;SDS011;31738;50.188;8.524;2022-11-12T09:30:55;148.55;;;18.10;;
46006;SDS011;31738;50.188;8.524;2022-11-12T09:33:39;148.85;;;18.20;;
46006;SDS011;31738;50.188;8.524;2022-11-12T09:36:23;43.20;;;16.58;;
46006;SDS011;31738;50.188;8.524;2022-11-12T09:39:07;57.75;;;17.42;;
46006;SDS011;31738;50.188;8.524;2022-11-12T09:41:52;68.60;;;20.70;;
46006;SDS011;31738;50.188;8.524;2022-11-12T09:44:36;86.78;;;19.40;;
46006;SDS011;31738;50.188;8.524;2022-11-12T09:50:35;76.65;;;16.17;;
46006;SDS011;31738;50.188;8.524;2022-11-12T09:56:41;98.18;;;16.92;;
46006;SDS011;31738;50.188;8.524;2022-11-12T09:59:27;64.20;;;16.63;;
46006;SDS011;31738;50.188;8.524;2022-11-12T10:05:14;94.88;;;16.50;;
46006;SDS011;31738;50.188;8.524;2022-11-12T10:18:38;143.15;;;16.80;;
46006;SDS011;31738;50.188;8.524;2022-11-12T10:24:36;105.32;;;16.40;;
46006;SDS011;31738;50.188;8.524;2022-11-12T10:27:21;149.20;;;18.40;;
46006;SDS011;31738;50.188;8.524;2022-11-12T10:30:17;108.40;;;17.30;;
46006;SDS011;31738;50.188;8.524;2022-11-12T10:33:03;57.67;;;16.95;;
46006;SDS011;31738;50.188;8.524;2022-11-12T10:35:47;46.90;;;17.25;;
46006;SDS011;31738;50.188;8.524;2022-11-12T10:38:31;52.25;;;15.98;;
46006;SDS011;31738;50.188;8.524;2022-11-12T10:41:21;62.80;;;18.42;;
46006;SDS011;31738;50.188;8.524;2022-11-12T10:44:12;38.58;;;17.45;;
46006;SDS011;31738;50.188;8.524;2022-11-12T10:50:17;45.80;;;18.35;;
46006;SDS011;31738;50.188;8.524;2022-11-12T10:53:05;46.30;;;16.95;;
46006;SDS011;31738;50.188;8.524;2022-11-12T10:55:57;42.72;;;18.25;;
46006;SDS011;31738;50.188;8.524;2022-11-12T10:58:43;81.68;;;18.83;;
46006;SDS011;31738;50.188;8.524;2022-11-12T11:01:27;53.97;;;17.30;;
46006;SDS011;31738;50.188;8.524;2022-11-12T11:09:58;131.27;;;18.40;;
46006;SDS011;31738;50.188;8.524;2022-11-12T11:12:43;40.75;;;16.58;;
46006;SDS011;31738;50.188;8.524;2022-11-12T11:15:28;135.73;;;19.55;;
46006;SDS011;31738;50.188;8.524;2022-11-12T11:18:12;103.28;;;19.35;;
46006;SDS011;31738;50.188;8.524;2022-11-12T11:21:05;42.70;;;15.98;;
46006;SDS011;31738;50.188;8.524;2022-11-12T11:36:12;47.50;;;19.98;;
46006;SDS011;31738;50.188;8.524;2022-11-12T11:39:36;41.25;;;18.65;;
46006;SDS011;31738;50.188;8.524;2022-11-12T11:55:21;55.60;;;18.25;;
46006;SDS011;31738;50.188;8.524;2022-11-12T12:01:30;51.58;;;18.65;;
46006;SDS011;31738;50.188;8.524;2022-11-12T12:04:44;38.13;;;18.83;;
46006;SDS011;31738;50.188;8.524;2022-11-12T12:07:33;66.03;;;20.20;;
46006;SDS011;31738;50.188;8.524;2022-11-12T12:10:28;56.13;;;19.98;;
46006;SDS011;31738;50.188;8.524;2022-11-12T12:13:27;40.13;;;19.10;;
46006;SDS011;31738;50.188;8.524;2022-11-12T12:19:31;43.38;;;20.20;;
46006;SDS011;31738;50.188;8.524;2022-11-12T12:22:37;46.17;;;21.02;;
46006;SDS011;31738;50.188;8.524;2022-11-12T12:25:31;125.82;;;22.15;;
46006;SDS011;31738;50.188;8.524;2022-11-12T12:28:34;67.20;;;21.98;;
46006;SDS011;31738;50.188;8.524;2022-11-12T12:31:21;60.78;;;21.42;;
46006;SDS011;31738;50.188;8.524;2022-11-12T12:34:16;65.28;;;21.65;;
46006;SDS011;31738;50.188;8.524;2022-11-12T12:37:25;87.15;;;21.85;;
46006;SDS011;31738;50.188;8.524;2022-11-12T12:40:36;92.93;;;22.10;;
46006;SDS011;31738;50.188;8.524;2022-11-12T12:43:44;53.42;;;21.48;;
46006;SDS011;31738;50.188;8.524;2022-11-12T12:46:29;49.15;;;21.48;;
46006;SDS011;31738;50.188;8.524;2022-11-12T12:49:20;52.63;;;21.30;;
46006;SDS011;31738;50.188;8.524;2022-11-12T12:52:12;122.65;;;23.63;;
46006;SDS011;31738;50.188;8.524;2022-11-12T12:54:58;57.88;;;22.98;;
46006;SDS011;31738;50.188;8.524;2022-11-12T12:57:42;125.57;;;25.70;;
46006;SDS011;31738;50.188;8.524;2022-11-12T13:00:34;75.25;;;26.38;;
46006;SDS011;31738;50.188;8.524;2022-11-12T13:06:31;67.10;;;26.92;;
46006;SDS011;31738;50.188;8.524;2022-11-12T13:12:02;62.17;;;25.50;;
46006;SDS011;31738;50.188;8.524;2022-11-12T13:14:49;70.20;;;24.98;;
46006;SDS011;31738;50.188;8.524;2022-11-12T13:17:46;100.07;;;25.70;;
46006;SDS011;31738;50.188;8.524;2022-11-12T13:23:41;52.17;;;24.58;;
46006;SDS011;31738;50.188;8.524;2022-11-12T13:26:51;51.13;;;23.50;;
46006;SDS011;31738;50.188;8.524;2022-11-12T13:29:40;54.55;;;24.52;;
46006;SDS011;31738;50.188;8.524;2022-11-12T13:32:27;97.53;;;25.50;;
46006;SDS011;31738;50.188;8.524;2022-11-12T13:40:51;49.28;;;23.33;;
46006;SDS011;31738;50.188;8.524;2022-11-12T13:43:48;53.10;;;25.08;;
46006;SDS011;31738;50.188;8.524;2022-11-12T13:46:32;57.05;;;25.73;;
46006;SDS011;31738;50.188;8.524;2022-11-12T13:49:21;50.45;;;24.17;;
46006;SDS011;31738;50.188;8.524;2022-11-12T13:52:05;57.58;;;26.02;;
46006;SDS011;31738;50.188;8.524;2022-11-12T13:58:04;52.10;;;24.52;;
46006;SDS011;31738;50.188;8.524;2022-11-12T14:01:02;56.13;;;26.13;;
46006;SDS011;31738;50.188;8.524;2022-11-12T14:03:48;56.58;;;25.63;;
46006;SDS011;31738;50.188;8.524;2022-11-12T14:06:44;54.25;;;25.73;;
46006;SDS011;31738;50.188;8.524;2022-11-12T14:09:39;53.47;;;25.15;;
46006;SDS011;31738;50.188;8.524;2022-11-12T14:21:23;53.38;;;26.20;;
46006;SDS011;31738;50.188;8.524;2022-11-12T14:24:10;51.42;;;25.33;;
46006;SDS011;31738;50.188;8.524;2022-11-12T14:26:55;56.65;;;26.20;;
46006;SDS011;31738;50.188;8.524;2022-11-12T14:29:39;55.90;;;27.27;;
46006;SDS011;31738;50.188;8.524;2022-11-12T14:32:23;53.05;;;26.13;;
46006;SDS011;31738;50.188;8.524;2022-11-12T14:38:13;58.67;;;26.73;;
46006;SDS011;31738;50.188;8.524;2022-11-12T14:43:53;52.92;;;25.77;;
46006;SDS011;31738;50.188;8.524;2022-11-12T14:46:44;63.30;;;28.77;;
46006;SDS011;31738;50.188;8.524;2022-11-12T14:49:39;54.00;;;27.08;;
46006;SDS011;31738;50.188;8.524;2022-11-12T14:52:30;61.63;;;28.40;;
46006;SDS011;31738;50.188;8.524;2022-11-12T14:55:20;62.78;;;28.70;;
46006;SDS011;31738;50.188;8.524;2022-11-12T14:58:10;58.35;;;27.30;;
46006;SDS011;31738;50.188;8.524;2022-11-12T15:00:58;64.13;;;28.13;;
46006;SDS011;31738;50.188;8.524;2022-11-12T15:06:54;62.30;;;28.55;;
46006;SDS011;31738;50.188;8.524;2022-11-12T15:09:40;63.42;;;28.25;;
46006;SDS011;31738;50.188;8.524;2022-11-12T15:12:25;75.75;;;29.08;;
46006;SDS011;31738;50.188;8.524;2022-11-12T15:15:16;91.03;;;29.25;;
46006;SDS011;31738;50.188;8.524;2022-11-12T15:18:19;77.82;;;28.55;;
46006;SDS011;31738;50.188;8.524;2022-11-12T15:21:14;105.32;;;29.67;;
46006;SDS011;31738;50.188;8.524;2022-11-12T15:24:51;71.65;;;27.25;;
46006;SDS011;31738;50.188;8.524;2022-11-12T15:27:31;97.55;;;27.25;;
46006;SDS011;31738;50.188;8.524;2022-11-12T15:30:24;87.40;;;27.13;;
46006;SDS011;31738;50.188;8.524;2022-11-12T15:33:16;99.10;;;26.00;;
46006;SDS011;31738;50.188;8.524;2022-11-12T15:36:03;154.52;;;27.60;;
46006;SDS011;31738;50.188;8.524;2022-11-12T15:38:48;114.72;;;26.80;;
46006;SDS011;31738;50.188;8.524;2022-11-12T15:41:34;123.65;;;27.05;;
46006;SDS011;31738;50.188;8.524;2022-11-12T15:44:18;142.55;;;28.73;;
46006;SDS011;31738;50.188;8.524;2022-11-12T15:47:02;104.87;;;26.53;;
46006;SDS011;31738;50.188;8.524;2022-11-12T15:49:48;160.93;;;32.30;;
46006;SDS011;31738;50.188;8.524;2022-11-12T15:52:33;157.15;;;29.27;;
46006;SDS011;31738;50.188;8.524;2022-11-12T15:55:18;169.50;;;29.92;;
46006;SDS011;31738;50.188;8.524;2022-11-12T15:58:02;167.80;;;30.92;;
46006;SDS011;31738;50.188;8.524;2022-11-12T16:00:47;139.50;;;30.23;;
46006;SDS011;31738;50.188;8.524;2022-11-12T16:03:31;116.97;;;29.75;;
46006;SDS011;31738;50.188;8.524;2022-11-12T16:06:16;88.97;;;29.50;;
46006;SDS011;31738;50.188;8.524;2022-11-12T16:09:00;115.20;;;30.90;;
46006;SDS011;31738;50.188;8.524;2022-11-12T16:11:51;98.93;;;28.45;;
46006;SDS011;31738;50.188;8.524;2022-11-12T16:14:40;89.70;;;31.17;;
46006;SDS011;31738;50.188;8.524;2022-11-12T16:17:24;65.93;;;28.13;;
46006;SDS011;31738;50.188;8.524;2022-11-12T16:20:16;50.93;;;24.83;;
46006;SDS011;31738;50.188;8.524;2022-11-12T16:23:04;53.03;;;24.83;;
46006;SDS011;31738;50.188;8.524;2022-11-12T16:25:48;103.88;;;28.90;;
46006;SDS011;31738;50.188;8.524;2022-11-12T16:28:32;59.95;;;27.38;;
46006;SDS011;31738;50.188;8.524;2022-11-12T16:31:18;58.00;;;27.25;;
46006;SDS011;31738;50.188;8.524;2022-11-12T16:36:46;51.63;;;24.48;;
46006;SDS011;31738;50.188;8.524;2022-11-12T16:39:31;47.10;;;23.20;;
46006;SDS011;31738;50.188;8.524;2022-11-12T16:42:15;46.13;;;22.30;;
46006;SDS011;31738;50.188;8.524;2022-11-12T16:44:59;41.15;;;20.60;;
46006;SDS011;31738;50.188;8.524;2022-11-12T16:47:46;43.15;;;21.70;;
46006;SDS011;31738;50.188;8.524;2022-11-12T16:50:35;45.88;;;21.52;;
46006;SDS011;31738;50.188;8.524;2022-11-12T16:53:19;42.25;;;19.58;;
46006;SDS011;31738;50.188;8.524;2022-11-12T16:56:04;42.45;;;21.45;;
46006;SDS011;31738;50.188;8.524;2022-11-12T16:58:53;40.13;;;21.30;;
46006;SDS011;31738;50.188;8.524;2022-11-12T17:01:47;40.83;;;21.38;;
46006;SDS011;31738;50.188;8.524;2022-11-12T17:04:31;43.25;;;21.75;;
46006;SDS011;31738;50.188;8.524;2022-11-12T17:07:15;41.10;;;21.08;;
46006;SDS011;31738;50.188;8.524;2022-11-12T17:09:59;42.08;;;20.33;;
46006;SDS011;31738;50.188;8.524;2022-11-12T17:12:46;38.13;;;20.08;;
46006;SDS011;31738;50.188;8.524;2022-11-12T17:15:32;43.25;;;21.23;;
46006;SDS011;31738;50.188;8.524;2022-11-12T17:18:34;44.13;;;22.20;;
46006;SDS011;31738;50.188;8.524;2022-11-12T17:21:21;43.00;;;22.53;;
46006;SDS011;31738;50.188;8.524;2022-11-12T17:24:06;39.58;;;20.05;;
46006;SDS011;31738;50.188;8.524;2022-11-12T17:26:51;35.85;;;19.52;;
46006;SDS011;31738;50.188;8.524;2022-11-12T17:29:35;38.65;;;19.98;;
46006;SDS011;31738;50.188;8.524;2022-11-12T17:32:19;35.72;;;18.70;;
46006;SDS011;31738;50.188;8.524;2022-11-12T17:35:07;30.27;;;15.30;;
46006;SDS011;31738;50.188;8.524;2022-11-12T17:37:51;17.85;;;9.57;;
46006;SDS011;31738;50.188;8.524;2022-11-12T17:40:35;16.50;;;8.07;;
46006;SDS011;31738;50.188;8.524;2022-11-12T17:43:20;13.55;;;7.47;;
46006;SDS011;31738;50.188;8.524;2022-11-12T17:46:05;20.83;;;10.02;;
46006;SDS011;31738;50.188;8.524;2022-11-12T17:48:51;25.20;;;13.68;;
46006;SDS011;31738;50.188;8.524;2022-11-12T17:51:35;26.10;;;13.85;;
46006;SDS011;31738;50.188;8.524;2022-11-12T17:54:35;24.60;;;14.05;;
46006;SDS011;31738;50.188;8.524;2022-11-12T17:57:19;24.95;;;14.18;;
46006;SDS011;31738;50.188;8.524;2022-11-12T18:00:04;28.58;;;15.10;;
46006;SDS011;31738;50.188;8.524;2022-11-12T18:02:48;29.23;;;15.93;;
46006;SDS011;31738;50.188;8.524;2022-11-12T18:05:33;34.78;;;17.95;;
46006;SDS011;31738;50.188;8.524;2022-11-12T18:08:20;38.60;;;20.25;;
46006;SDS011;31738;50.188;8.524;2022-11-12T18:11:04;47.13;;;25.83;;
46006;SDS011;31738;50.188;8.524;2022-11-12T18:13:49;54.35;;;28.25;;
46006;SDS011;31738;50.188;8.524;2022-11-12T18:16:33;42.28;;;23.13;;
46006;SDS011;31738;50.188;8.524;2022-11-12T18:19:17;49.17;;;26.13;;
46006;SDS011;31738;50.188;8.524;2022-11-12T18:22:04;47.70;;;27.50;;